sensor_id;sensor_type;location;lat;lon;timestamp;temperature;humidity
10566;DHT22;5331;48.148;16.326;2023-02-15T00:02:01;3.70;1.00
10566;DHT22;5331;48.148;16.326;2023-02-15T00:04:30;3.70;1.00
10566;DHT22;5331;48.148;16.326;2023-02-15T00:07:13;3.70;1.00
10566;DHT22;5331;48.148;16.326;2023-02-15T00:09:40;3.60;1.00
10566;DHT22;5331;48.148;16.326;2023-02-15T00:12:08;3.60;1.00
10566;DHT22;5331;48.148;16.326;2023-02-15T00:14:35;3.60;1.00
10566;DHT22;5331;48.148;16.326;2023-02-15T00:17:03;3.60;1.00
10566;DHT22;5331;48.148;16.326;2023-02-15T00:19:30;3.70;1.00
10566;DHT22;5331;48.148;16.326;2023-02-15T00:21:57;3.60;1.00
10566;DHT22;5331;48.148;16.326;2023-02-15T00:24:25;3.60;1.00
10566;DHT22;5331;48.148;16.326;2023-02-15T00:26:52;3.60;1.00
10566;DHT22;5331;48.148;16.326;2023-02-15T00:29:19;3.50;1.00
10566;DHT22;5331;48.148;16.326;2023-02-15T00:31:46;3.60;1.00
10566;DHT22;5331;48.148;16.326;2023-02-15T00:34:17;3.60;1.00
10566;DHT22;5331;48.148;16.326;2023-02-15T00:36:44;3.50;1.00
10566;DHT22;5331;48.148;16.326;2023-02-15T00:39:12;3.50;1.00
10566;DHT22;5331;48.148;16.326;2023-02-15T00:41:40;3.50;1.00
10566;DHT22;5331;48.148;16.326;2023-02-15T00:44:07;3.50;1.00
10566;DHT22;5331;48.148;16.326;2023-02-15T00:46:34;3.80;1.00
10566;DHT22;5331;48.148;16.326;2023-02-15T00:49:02;3.50;1.00
10566;DHT22;5331;48.148;16.326;2023-02-15T00:51:31;3.50;1.00
10566;DHT22;5331;48.148;16.326;2023-02-15T00:53:58;3.50;1.00
10566;DHT22;5331;48.148;16.326;2023-02-15T00:56:25;3.50;1.00
10566;DHT22;5331;48.148;16.326;2023-02-15T00:58:53;3.50;1.00
10566;DHT22;5331;48.148;16.326;2023-02-15T01:01:21;3.50;1.00
10566;DHT22;5331;48.148;16.326;2023-02-15T01:03:49;3.50;1.00
10566;DHT22;5331;48.148;16.326;2023-02-15T01:06:16;3.50;1.00
10566;DHT22;5331;48.148;16.326;2023-02-15T01:08:45;3.50;1.00
10566;DHT22;5331;48.148;16.326;2023-02-15T01:11:27;3.50;1.00
10566;DHT22;5331;48.148;16.326;2023-02-15T01:13:56;3.50;1.00
10566;DHT22;5331;48.148;16.326;2023-02-15T01:16:24;3.50;1.00
10566;DHT22;5331;48.148;16.326;2023-02-15T01:18:52;3.50;1.00
10566;DHT22;5331;48.148;16.326;2023-02-15T01:21:22;3.50;1.00
10566;DHT22;5331;48.148;16.326;2023-02-15T01:23:50;3.50;1.00
10566;DHT22;5331;48.148;16.326;2023-02-15T01:26:18;3.40;1.00
10566;DHT22;5331;48.148;16.326;2023-02-15T01:28:45;3.40;1.00
10566;DHT22;5331;48.148;16.326;2023-02-15T01:31:13;3.40;1.00
10566;DHT22;5331;48.148;16.326;2023-02-15T01:33:41;3.40;1.00
10566;DHT22;5331;48.148;16.326;2023-02-15T01:36:09;3.50;1.00
10566;DHT22;5331;48.148;16.326;2023-02-15T01:38:36;3.40;1.00
10566;DHT22;5331;48.148;16.326;2023-02-15T01:41:04;3.40;1.00
10566;DHT22;5331;48.148;16.326;2023-02-15T01:43:51;3.40;1.00
10566;DHT22;5331;48.148;16.326;2023-02-15T01:46:22;3.40;1.00
10566;DHT22;5331;48.148;16.326;2023-02-15T01:48:54;3.40;1.00
10566;DHT22;5331;48.148;16.326;2023-02-15T01:51:24;3.40;1.00
10566;DHT22;5331;48.148;16.326;2023-02-15T01:53:58;3.40;1.00
10566;DHT22;5331;48.148;16.326;2023-02-15T01:56:30;3.40;1.00
10566;DHT22;5331;48.148;16.326;2023-02-15T01:59:00;3.30;1.00
10566;DHT22;5331;48.148;16.326;2023-02-15T02:01:29;3.30;1.00
10566;DHT22;5331;48.148;16.326;2023-02-15T02:04:00;3.30;1.00
10566;DHT22;5331;48.148;16.326;2023-02-15T02:06:29;3.30;1.00
10566;DHT22;5331;48.148;16.326;2023-02-15T02:08:57;3.30;1.00
10566;DHT22;5331;48.148;16.326;2023-02-15T02:11:24;3.30;1.00
10566;DHT22;5331;48.148;16.326;2023-02-15T02:13:54;3.20;1.00
10566;DHT22;5331;48.148;16.326;2023-02-15T02:16:24;3.20;1.00
10566;DHT22;5331;48.148;16.326;2023-02-15T02:19:08;3.30;1.00
10566;DHT22;5331;48.148;16.326;2023-02-15T02:22:13;3.20;1.00
10566;DHT22;5331;48.148;16.326;2023-02-15T02:25:03;3.20;1.00
10566;DHT22;5331;48.148;16.326;2023-02-15T02:27:39;3.20;1.00
10566;DHT22;5331;48.148;16.326;2023-02-15T02:30:39;3.20;1.00
10566;DHT22;5331;48.148;16.326;2023-02-15T02:33:31;3.20;1.00
10566;DHT22;5331;48.148;16.326;2023-02-15T02:36:07;3.10;1.00
10566;DHT22;5331;48.148;16.326;2023-02-15T02:38:46;3.10;1.00
10566;DHT22;5331;48.148;16.326;2023-02-15T02:41:20;3.10;1.00
10566;DHT22;5331;48.148;16.326;2023-02-15T02:44:02;3.10;1.00
10566;DHT22;5331;48.148;16.326;2023-02-15T02:46:34;3.10;1.00
10566;DHT22;5331;48.148;16.326;2023-02-15T02:49:04;3.10;1.00
10566;DHT22;5331;48.148;16.326;2023-02-15T02:51:31;3.10;1.00
10566;DHT22;5331;48.148;16.326;2023-02-15T02:54:01;3.00;1.00
10566;DHT22;5331;48.148;16.326;2023-02-15T02:56:35;3.00;1.00
10566;DHT22;5331;48.148;16.326;2023-02-15T02:59:07;3.00;1.00
10566;DHT22;5331;48.148;16.326;2023-02-15T03:01:40;3.00;1.00
10566;DHT22;5331;48.148;16.326;2023-02-15T03:04:12;3.10;1.00
10566;DHT22;5331;48.148;16.326;2023-02-15T03:06:45;3.00;1.00
10566;DHT22;5331;48.148;16.326;2023-02-15T03:09:17;3.00;1.00
10566;DHT22;5331;48.148;16.326;2023-02-15T03:11:48;3.00;1.00
10566;DHT22;5331;48.148;16.326;2023-02-15T03:14:18;3.10;1.00
10566;DHT22;5331;48.148;16.326;2023-02-15T03:16:47;3.00;1.00
10566;DHT22;5331;48.148;16.326;2023-02-15T03:19:23;3.00;1.00
10566;DHT22;5331;48.148;16.326;2023-02-15T03:21:54;3.00;1.00
10566;DHT22;5331;48.148;16.326;2023-02-15T03:24:32;3.00;1.00
10566;DHT22;5331;48.148;16.326;2023-02-15T03:27:03;3.00;1.00
10566;DHT22;5331;48.148;16.326;2023-02-15T03:29:32;3.00;1.00
10566;DHT22;5331;48.148;16.326;2023-02-15T03:32:09;2.90;1.00
10566;DHT22;5331;48.148;16.326;2023-02-15T03:34:39;2.90;1.00
10566;DHT22;5331;48.148;16.326;2023-02-15T03:37:11;2.90;1.00
10566;DHT22;5331;48.148;16.326;2023-02-15T03:39:43;2.90;1.00
10566;DHT22;5331;48.148;16.326;2023-02-15T03:42:16;2.90;1.00
10566;DHT22;5331;48.148;16.326;2023-02-15T03:44:49;2.90;1.00
10566;DHT22;5331;48.148;16.326;2023-02-15T03:47:19;2.90;1.00
10566;DHT22;5331;48.148;16.326;2023-02-15T03:49:50;2.90;1.00
10566;DHT22;5331;48.148;16.326;2023-02-15T03:52:20;2.90;1.00
10566;DHT22;5331;48.148;16.326;2023-02-15T03:54:47;2.90;1.00
10566;DHT22;5331;48.148;16.326;2023-02-15T03:57:18;2.90;1.00
10566;DHT22;5331;48.148;16.326;2023-02-15T04:00:05;2.80;1.00
10566;DHT22;5331;48.148;16.326;2023-02-15T04:03:20;2.80;1.00
10566;DHT22;5331;48.148;16.326;2023-02-15T04:05:50;2.80;1.00
10566;DHT22;5331;48.148;16.326;2023-02-15T04:08:17;2.80;1.00
10566;DHT22;5331;48.148;16.326;2023-02-15T04:10:44;2.80;1.00
10566;DHT22;5331;48.148;16.326;2023-02-15T04:13:21;2.80;1.00
10566;DHT22;5331;48.148;16.326;2023-02-15T04:15:48;2.90;1.00
10566;DHT22;5331;48.148;16.326;2023-02-15T04:18:30;2.90;1.00
10566;DHT22;5331;48.148;16.326;2023-02-15T04:21:16;2.80;1.00
10566;DHT22;5331;48.148;16.326;2023-02-15T04:24:00;2.80;1.00
10566;DHT22;5331;48.148;16.326;2023-02-15T04:26:45;2.80;1.00
10566;DHT22;5331;48.148;16.326;2023-02-15T04:29:13;2.80;1.00
10566;DHT22;5331;48.148;16.326;2023-02-15T04:31:40;2.80;1.00
10566;DHT22;5331;48.148;16.326;2023-02-15T04:34:08;2.70;1.00
10566;DHT22;5331;48.148;16.326;2023-02-15T04:36:37;2.80;1.00
10566;DHT22;5331;48.148;16.326;2023-02-15T04:39:04;2.80;1.00
10566;DHT22;5331;48.148;16.326;2023-02-15T04:43:59;2.80;1.00
10566;DHT22;5331;48.148;16.326;2023-02-15T04:46:27;2.80;1.00
10566;DHT22;5331;48.148;16.326;2023-02-15T04:48:54;2.80;1.00
10566;DHT22;5331;48.148;16.326;2023-02-15T04:51:21;2.80;1.00
10566;DHT22;5331;48.148;16.326;2023-02-15T04:53:49;2.80;1.00
10566;DHT22;5331;48.148;16.326;2023-02-15T04:56:18;2.80;1.00
10566;DHT22;5331;48.148;16.326;2023-02-15T04:58:45;2.80;1.00
10566;DHT22;5331;48.148;16.326;2023-02-15T05:01:12;2.90;1.00
10566;DHT22;5331;48.148;16.326;2023-02-15T05:03:39;2.80;1.00
10566;DHT22;5331;48.148;16.326;2023-02-15T05:06:06;2.80;1.00
10566;DHT22;5331;48.148;16.326;2023-02-15T05:08:33;2.70;1.00
10566;DHT22;5331;48.148;16.326;2023-02-15T05:11:01;2.70;1.00
10566;DHT22;5331;48.148;16.326;2023-02-15T05:13:29;2.70;1.00
10566;DHT22;5331;48.148;16.326;2023-02-15T05:15:56;2.70;1.00
10566;DHT22;5331;48.148;16.326;2023-02-15T05:18:23;2.70;1.00
10566;DHT22;5331;48.148;16.326;2023-02-15T05:20:50;2.70;1.00
10566;DHT22;5331;48.148;16.326;2023-02-15T05:23:17;2.70;1.00
10566;DHT22;5331;48.148;16.326;2023-02-15T05:25:47;2.60;1.00
10566;DHT22;5331;48.148;16.326;2023-02-15T05:28:34;2.60;1.00
10566;DHT22;5331;48.148;16.326;2023-02-15T05:31:11;2.60;1.00
10566;DHT22;5331;48.148;16.326;2023-02-15T05:33:39;2.60;1.00
10566;DHT22;5331;48.148;16.326;2023-02-15T05:36:07;2.60;1.00
10566;DHT22;5331;48.148;16.326;2023-02-15T05:38:34;2.60;1.00
10566;DHT22;5331;48.148;16.326;2023-02-15T05:41:08;2.60;1.00
10566;DHT22;5331;48.148;16.326;2023-02-15T05:43:37;2.60;1.00
10566;DHT22;5331;48.148;16.326;2023-02-15T05:46:05;2.70;1.00
10566;DHT22;5331;48.148;16.326;2023-02-15T05:48:32;2.70;1.00
10566;DHT22;5331;48.148;16.326;2023-02-15T05:51:00;2.70;1.00
10566;DHT22;5331;48.148;16.326;2023-02-15T05:53:28;2.70;1.00
10566;DHT22;5331;48.148;16.326;2023-02-15T05:55:55;2.70;1.00
10566;DHT22;5331;48.148;16.326;2023-02-15T05:58:30;2.70;1.00
10566;DHT22;5331;48.148;16.326;2023-02-15T06:00:59;2.80;1.00
10566;DHT22;5331;48.148;16.326;2023-02-15T06:03:26;2.70;1.00
10566;DHT22;5331;48.148;16.326;2023-02-15T06:05:54;2.70;1.00
10566;DHT22;5331;48.148;16.326;2023-02-15T06:08:21;2.70;1.00
10566;DHT22;5331;48.148;16.326;2023-02-15T06:10:48;2.70;1.00
10566;DHT22;5331;48.148;16.326;2023-02-15T06:13:15;2.60;1.00
10566;DHT22;5331;48.148;16.326;2023-02-15T06:15:42;2.70;1.00
10566;DHT22;5331;48.148;16.326;2023-02-15T06:18:10;2.70;1.00
10566;DHT22;5331;48.148;16.326;2023-02-15T06:20:37;2.70;1.00
10566;DHT22;5331;48.148;16.326;2023-02-15T06:23:04;2.70;1.00
10566;DHT22;5331;48.148;16.326;2023-02-15T06:25:31;2.70;1.00
10566;DHT22;5331;48.148;16.326;2023-02-15T06:27:58;2.70;1.00
10566;DHT22;5331;48.148;16.326;2023-02-15T06:30:25;2.70;1.00
10566;DHT22;5331;48.148;16.326;2023-02-15T06:32:58;2.80;1.00
10566;DHT22;5331;48.148;16.326;2023-02-15T06:35:37;2.80;1.00
10566;DHT22;5331;48.148;16.326;2023-02-15T06:38:04;2.80;1.00
10566;DHT22;5331;48.148;16.326;2023-02-15T06:40:32;2.80;1.00
10566;DHT22;5331;48.148;16.326;2023-02-15T06:42:59;2.80;1.00
10566;DHT22;5331;48.148;16.326;2023-02-15T06:45:26;2.80;1.00
10566;DHT22;5331;48.148;16.326;2023-02-15T06:47:53;2.80;1.00
10566;DHT22;5331;48.148;16.326;2023-02-15T06:50:20;2.80;1.00
10566;DHT22;5331;48.148;16.326;2023-02-15T06:52:48;2.80;1.00
10566;DHT22;5331;48.148;16.326;2023-02-15T06:55:15;2.80;1.00
10566;DHT22;5331;48.148;16.326;2023-02-15T06:57:42;2.90;1.00
10566;DHT22;5331;48.148;16.326;2023-02-15T07:00:16;2.90;1.00
10566;DHT22;5331;48.148;16.326;2023-02-15T07:02:43;2.90;1.00
10566;DHT22;5331;48.148;16.326;2023-02-15T07:05:10;2.90;1.00
10566;DHT22;5331;48.148;16.326;2023-02-15T07:07:38;2.90;1.00
10566;DHT22;5331;48.148;16.326;2023-02-15T07:10:07;2.90;1.00
10566;DHT22;5331;48.148;16.326;2023-02-15T07:12:34;2.90;1.00
10566;DHT22;5331;48.148;16.326;2023-02-15T07:15:11;3.00;1.00
10566;DHT22;5331;48.148;16.326;2023-02-15T07:17:38;3.00;1.00
10566;DHT22;5331;48.148;16.326;2023-02-15T07:20:08;3.00;1.00
10566;DHT22;5331;48.148;16.326;2023-02-15T07:22:35;3.10;1.00
10566;DHT22;5331;48.148;16.326;2023-02-15T07:25:03;3.10;1.00
10566;DHT22;5331;48.148;16.326;2023-02-15T07:27:32;3.10;1.00
10566;DHT22;5331;48.148;16.326;2023-02-15T07:30:08;3.10;1.00
10566;DHT22;5331;48.148;16.326;2023-02-15T07:32:35;3.10;1.00
10566;DHT22;5331;48.148;16.326;2023-02-15T07:35:22;3.10;1.00
10566;DHT22;5331;48.148;16.326;2023-02-15T07:37:57;3.10;1.00
10566;DHT22;5331;48.148;16.326;2023-02-15T07:40:24;3.10;1.00
10566;DHT22;5331;48.148;16.326;2023-02-15T07:42:53;3.10;1.00
10566;DHT22;5331;48.148;16.326;2023-02-15T07:45:22;3.10;1.00
10566;DHT22;5331;48.148;16.326;2023-02-15T07:47:49;3.10;1.00
10566;DHT22;5331;48.148;16.326;2023-02-15T07:52:43;3.10;1.00
10566;DHT22;5331;48.148;16.326;2023-02-15T07:55:10;3.10;1.00
10566;DHT22;5331;48.148;16.326;2023-02-15T07:57:42;3.20;1.00
10566;DHT22;5331;48.148;16.326;2023-02-15T08:00:12;3.20;1.00
10566;DHT22;5331;48.148;16.326;2023-02-15T08:02:40;3.20;1.00
10566;DHT22;5331;48.148;16.326;2023-02-15T08:05:08;3.10;1.00
10566;DHT22;5331;48.148;16.326;2023-02-15T08:07:35;3.20;1.00
10566;DHT22;5331;48.148;16.326;2023-02-15T08:10:02;3.20;1.00
10566;DHT22;5331;48.148;16.326;2023-02-15T08:12:35;3.20;1.00
10566;DHT22;5331;48.148;16.326;2023-02-15T08:15:02;3.30;1.00
10566;DHT22;5331;48.148;16.326;2023-02-15T08:17:31;3.30;1.00
10566;DHT22;5331;48.148;16.326;2023-02-15T08:20:02;3.30;1.00
10566;DHT22;5331;48.148;16.326;2023-02-15T08:22:30;3.30;1.00
10566;DHT22;5331;48.148;16.326;2023-02-15T08:24:57;3.30;1.00
10566;DHT22;5331;48.148;16.326;2023-02-15T08:27:23;3.30;1.00
10566;DHT22;5331;48.148;16.326;2023-02-15T08:29:52;3.30;1.00
10566;DHT22;5331;48.148;16.326;2023-02-15T08:32:19;3.30;1.00
10566;DHT22;5331;48.148;16.326;2023-02-15T08:34:49;3.30;1.00
10566;DHT22;5331;48.148;16.326;2023-02-15T08:37:16;3.40;1.00
10566;DHT22;5331;48.148;16.326;2023-02-15T08:39:43;3.40;1.00
10566;DHT22;5331;48.148;16.326;2023-02-15T08:42:11;3.50;1.00
10566;DHT22;5331;48.148;16.326;2023-02-15T08:44:38;3.50;1.00
10566;DHT22;5331;48.148;16.326;2023-02-15T08:47:05;3.50;1.00
10566;DHT22;5331;48.148;16.326;2023-02-15T08:49:32;3.50;1.00
10566;DHT22;5331;48.148;16.326;2023-02-15T08:52:01;3.60;1.00
10566;DHT22;5331;48.148;16.326;2023-02-15T08:54:28;3.60;1.00
10566;DHT22;5331;48.148;16.326;2023-02-15T08:56:55;3.60;1.00
10566;DHT22;5331;48.148;16.326;2023-02-15T08:59:23;3.60;1.00
10566;DHT22;5331;48.148;16.326;2023-02-15T09:01:52;3.60;1.00
10566;DHT22;5331;48.148;16.326;2023-02-15T09:04:21;3.70;1.00
10566;DHT22;5331;48.148;16.326;2023-02-15T09:06:48;3.60;1.00
10566;DHT22;5331;48.148;16.326;2023-02-15T09:09:18;3.60;1.00
10566;DHT22;5331;48.148;16.326;2023-02-15T09:11:46;3.60;1.00
10566;DHT22;5331;48.148;16.326;2023-02-15T09:14:17;3.70;1.00
10566;DHT22;5331;48.148;16.326;2023-02-15T09:16:46;3.70;1.00
10566;DHT22;5331;48.148;16.326;2023-02-15T09:19:15;3.60;1.00
10566;DHT22;5331;48.148;16.326;2023-02-15T09:21:43;3.60;1.00
10566;DHT22;5331;48.148;16.326;2023-02-15T09:24:12;3.60;1.00
10566;DHT22;5331;48.148;16.326;2023-02-15T09:26:42;3.70;1.00
10566;DHT22;5331;48.148;16.326;2023-02-15T09:29:10;3.70;1.00
10566;DHT22;5331;48.148;16.326;2023-02-15T09:31:39;3.70;1.00
10566;DHT22;5331;48.148;16.326;2023-02-15T09:34:09;3.80;1.00
10566;DHT22;5331;48.148;16.326;2023-02-15T09:36:38;3.80;1.00
10566;DHT22;5331;48.148;16.326;2023-02-15T09:39:08;3.70;1.00
10566;DHT22;5331;48.148;16.326;2023-02-15T09:44:55;3.90;1.00
10566;DHT22;5331;48.148;16.326;2023-02-15T09:47:48;3.90;1.00
10566;DHT22;5331;48.148;16.326;2023-02-15T09:50:21;4.00;1.00
10566;DHT22;5331;48.148;16.326;2023-02-15T09:53:05;4.10;1.00
10566;DHT22;5331;48.148;16.326;2023-02-15T09:55:51;4.10;1.00
10566;DHT22;5331;48.148;16.326;2023-02-15T09:58:27;4.00;1.00
10566;DHT22;5331;48.148;16.326;2023-02-15T10:01:01;4.20;1.00
10566;DHT22;5331;48.148;16.326;2023-02-15T10:03:41;4.30;1.00
10566;DHT22;5331;48.148;16.326;2023-02-15T10:06:29;4.30;1.00
10566;DHT22;5331;48.148;16.326;2023-02-15T10:09:03;4.30;1.00
10566;DHT22;5331;48.148;16.326;2023-02-15T10:11:45;4.30;1.00
10566;DHT22;5331;48.148;16.326;2023-02-15T10:14:32;4.30;1.00
10566;DHT22;5331;48.148;16.326;2023-02-15T10:17:14;4.30;1.00
10566;DHT22;5331;48.148;16.326;2023-02-15T10:19:52;4.20;1.00
10566;DHT22;5331;48.148;16.326;2023-02-15T10:22:29;4.20;1.00
10566;DHT22;5331;48.148;16.326;2023-02-15T10:25:22;4.20;1.00
10566;DHT22;5331;48.148;16.326;2023-02-15T10:27:57;4.30;1.00
10566;DHT22;5331;48.148;16.326;2023-02-15T10:30:31;4.30;1.00
10566;DHT22;5331;48.148;16.326;2023-02-15T10:33:03;4.30;1.00
10566;DHT22;5331;48.148;16.326;2023-02-15T10:35:40;4.30;1.00
10566;DHT22;5331;48.148;16.326;2023-02-15T10:38:20;4.30;1.00
10566;DHT22;5331;48.148;16.326;2023-02-15T10:41:01;4.40;1.00
10566;DHT22;5331;48.148;16.326;2023-02-15T10:43:54;4.20;1.00
10566;DHT22;5331;48.148;16.326;2023-02-15T10:46:48;4.20;1.00
10566;DHT22;5331;48.148;16.326;2023-02-15T10:49:29;4.20;1.00
10566;DHT22;5331;48.148;16.326;2023-02-15T10:52:10;4.20;1.00
10566;DHT22;5331;48.148;16.326;2023-02-15T10:54:45;4.40;1.00
10566;DHT22;5331;48.148;16.326;2023-02-15T10:57:21;4.50;1.00
10566;DHT22;5331;48.148;16.326;2023-02-15T11:00:03;4.60;1.00
10566;DHT22;5331;48.148;16.326;2023-02-15T11:02:44;4.60;1.00
10566;DHT22;5331;48.148;16.326;2023-02-15T11:05:24;4.60;1.00
10566;DHT22;5331;48.148;16.326;2023-02-15T11:07:55;4.60;1.00
10566;DHT22;5331;48.148;16.326;2023-02-15T11:10:29;4.60;1.00
10566;DHT22;5331;48.148;16.326;2023-02-15T11:12:58;4.50;1.00
10566;DHT22;5331;48.148;16.326;2023-02-15T11:15:40;4.60;1.00
10566;DHT22;5331;48.148;16.326;2023-02-15T11:18:13;4.60;1.00
10566;DHT22;5331;48.148;16.326;2023-02-15T11:20:45;4.60;1.00
10566;DHT22;5331;48.148;16.326;2023-02-15T11:23:16;4.60;1.00
10566;DHT22;5331;48.148;16.326;2023-02-15T11:25:47;4.60;1.00
10566;DHT22;5331;48.148;16.326;2023-02-15T11:28:24;4.50;1.00
10566;DHT22;5331;48.148;16.326;2023-02-15T11:30:55;4.50;1.00
10566;DHT22;5331;48.148;16.326;2023-02-15T11:33:27;4.50;1.00
10566;DHT22;5331;48.148;16.326;2023-02-15T11:36:00;4.60;1.00
10566;DHT22;5331;48.148;16.326;2023-02-15T11:38:31;4.60;1.00
10566;DHT22;5331;48.148;16.326;2023-02-15T11:41:02;4.60;1.00
10566;DHT22;5331;48.148;16.326;2023-02-15T11:43:34;4.60;1.00
10566;DHT22;5331;48.148;16.326;2023-02-15T11:46:03;4.80;1.00
10566;DHT22;5331;48.148;16.326;2023-02-15T11:48:32;4.70;1.00
10566;DHT22;5331;48.148;16.326;2023-02-15T11:50:59;4.60;1.00
10566;DHT22;5331;48.148;16.326;2023-02-15T11:53:31;4.60;1.00
10566;DHT22;5331;48.148;16.326;2023-02-15T11:56:03;4.50;1.00
10566;DHT22;5331;48.148;16.326;2023-02-15T11:58:36;4.50;1.00
10566;DHT22;5331;48.148;16.326;2023-02-15T12:01:11;4.60;1.00
10566;DHT22;5331;48.148;16.326;2023-02-15T12:03:46;4.70;1.00
10566;DHT22;5331;48.148;16.326;2023-02-15T12:06:22;4.70;1.00
10566;DHT22;5331;48.148;16.326;2023-02-15T12:08:59;4.70;1.00
10566;DHT22;5331;48.148;16.326;2023-02-15T12:11:34;4.60;1.00
10566;DHT22;5331;48.148;16.326;2023-02-15T12:14:07;4.60;1.00
10566;DHT22;5331;48.148;16.326;2023-02-15T12:16:41;4.60;1.00
10566;DHT22;5331;48.148;16.326;2023-02-15T12:19:23;4.70;1.00
10566;DHT22;5331;48.148;16.326;2023-02-15T12:21:52;4.70;1.00
10566;DHT22;5331;48.148;16.326;2023-02-15T12:24:23;4.70;1.00
10566;DHT22;5331;48.148;16.326;2023-02-15T12:27:01;4.70;1.00
10566;DHT22;5331;48.148;16.326;2023-02-15T12:29:34;4.80;1.00
10566;DHT22;5331;48.148;16.326;2023-02-15T12:32:03;4.80;1.00
10566;DHT22;5331;48.148;16.326;2023-02-15T12:34:37;4.90;1.00
10566;DHT22;5331;48.148;16.326;2023-02-15T12:37:10;4.90;1.00
10566;DHT22;5331;48.148;16.326;2023-02-15T12:39:51;5.00;1.00
10566;DHT22;5331;48.148;16.326;2023-02-15T12:42:19;5.00;1.00
10566;DHT22;5331;48.148;16.326;2023-02-15T12:44:56;4.80;1.00
10566;DHT22;5331;48.148;16.326;2023-02-15T12:47:23;4.90;1.00
10566;DHT22;5331;48.148;16.326;2023-02-15T12:50:08;4.80;1.00
10566;DHT22;5331;48.148;16.326;2023-02-15T12:52:42;5.00;1.00
10566;DHT22;5331;48.148;16.326;2023-02-15T12:55:17;5.10;1.00
10566;DHT22;5331;48.148;16.326;2023-02-15T12:57:45;5.20;1.00
10566;DHT22;5331;48.148;16.326;2023-02-15T13:00:26;5.20;1.00
10566;DHT22;5331;48.148;16.326;2023-02-15T13:02:55;5.20;1.00
10566;DHT22;5331;48.148;16.326;2023-02-15T13:05:28;5.20;1.00
10566;DHT22;5331;48.148;16.326;2023-02-15T13:07:58;5.20;1.00
10566;DHT22;5331;48.148;16.326;2023-02-15T13:10:29;5.30;1.00
10566;DHT22;5331;48.148;16.326;2023-02-15T13:12:57;5.30;1.00
10566;DHT22;5331;48.148;16.326;2023-02-15T13:15:32;5.50;1.00
10566;DHT22;5331;48.148;16.326;2023-02-15T13:18:03;5.40;1.00
10566;DHT22;5331;48.148;16.326;2023-02-15T13:20:34;5.40;1.00
10566;DHT22;5331;48.148;16.326;2023-02-15T13:23:04;5.30;1.00
10566;DHT22;5331;48.148;16.326;2023-02-15T13:25:42;5.20;1.00
10566;DHT22;5331;48.148;16.326;2023-02-15T13:28:24;5.20;1.00
10566;DHT22;5331;48.148;16.326;2023-02-15T13:30:55;5.20;1.00
10566;DHT22;5331;48.148;16.326;2023-02-15T13:33:32;5.10;1.00
10566;DHT22;5331;48.148;16.326;2023-02-15T13:36:08;5.10;1.00
10566;DHT22;5331;48.148;16.326;2023-02-15T13:38:48;5.20;1.00
10566;DHT22;5331;48.148;16.326;2023-02-15T13:41:19;5.20;1.00
10566;DHT22;5331;48.148;16.326;2023-02-15T13:43:54;5.20;1.00
10566;DHT22;5331;48.148;16.326;2023-02-15T13:46:37;5.50;1.00
10566;DHT22;5331;48.148;16.326;2023-02-15T13:52:19;5.60;1.00
10566;DHT22;5331;48.148;16.326;2023-02-15T13:55:21;5.70;1.00
10566;DHT22;5331;48.148;16.326;2023-02-15T13:58:10;5.70;1.00
10566;DHT22;5331;48.148;16.326;2023-02-15T14:00:48;5.60;1.00
10566;DHT22;5331;48.148;16.326;2023-02-15T14:06:51;5.60;1.00
10566;DHT22;5331;48.148;16.326;2023-02-15T14:09:40;5.60;1.00
10566;DHT22;5331;48.148;16.326;2023-02-15T14:12:29;5.70;1.00
10566;DHT22;5331;48.148;16.326;2023-02-15T14:15:13;5.70;1.00
10566;DHT22;5331;48.148;16.326;2023-02-15T14:18:08;5.80;1.00
10566;DHT22;5331;48.148;16.326;2023-02-15T14:20:52;5.80;1.00
10566;DHT22;5331;48.148;16.326;2023-02-15T14:23:33;6.00;1.00
10566;DHT22;5331;48.148;16.326;2023-02-15T14:26:09;6.00;1.00
10566;DHT22;5331;48.148;16.326;2023-02-15T14:28:45;6.00;1.00
10566;DHT22;5331;48.148;16.326;2023-02-15T14:31:15;6.00;1.00
10566;DHT22;5331;48.148;16.326;2023-02-15T14:33:52;5.90;1.00
10566;DHT22;5331;48.148;16.326;2023-02-15T14:36:20;5.80;1.00
10566;DHT22;5331;48.148;16.326;2023-02-15T14:38:57;5.80;1.00
10566;DHT22;5331;48.148;16.326;2023-02-15T14:41:35;5.80;1.00
10566;DHT22;5331;48.148;16.326;2023-02-15T14:44:10;5.70;1.00
10566;DHT22;5331;48.148;16.326;2023-02-15T14:46:46;5.80;1.00
10566;DHT22;5331;48.148;16.326;2023-02-15T14:49:17;5.70;1.00
10566;DHT22;5331;48.148;16.326;2023-02-15T14:52:01;5.70;1.00
10566;DHT22;5331;48.148;16.326;2023-02-15T14:57:38;5.60;1.00
10566;DHT22;5331;48.148;16.326;2023-02-15T15:03:21;5.60;1.00
10566;DHT22;5331;48.148;16.326;2023-02-15T15:05:52;5.50;1.00
10566;DHT22;5331;48.148;16.326;2023-02-15T15:08:28;5.40;1.00
10566;DHT22;5331;48.148;16.326;2023-02-15T15:10:56;5.40;1.00
10566;DHT22;5331;48.148;16.326;2023-02-15T15:13:54;5.40;1.00
10566;DHT22;5331;48.148;16.326;2023-02-15T15:16:34;5.40;1.00
10566;DHT22;5331;48.148;16.326;2023-02-15T15:22:31;5.20;1.00
10566;DHT22;5331;48.148;16.326;2023-02-15T15:25:01;5.20;1.00
10566;DHT22;5331;48.148;16.326;2023-02-15T15:27:44;5.20;1.00
10566;DHT22;5331;48.148;16.326;2023-02-15T15:36:37;5.00;1.00
10566;DHT22;5331;48.148;16.326;2023-02-15T15:42:24;4.90;1.00
10566;DHT22;5331;48.148;16.326;2023-02-15T15:45:38;4.80;1.00
10566;DHT22;5331;48.148;16.326;2023-02-15T15:48:30;4.70;1.00
10566;DHT22;5331;48.148;16.326;2023-02-15T15:51:02;4.60;1.00
10566;DHT22;5331;48.148;16.326;2023-02-15T15:53:37;4.50;1.00
10566;DHT22;5331;48.148;16.326;2023-02-15T15:56:13;4.50;1.00
10566;DHT22;5331;48.148;16.326;2023-02-15T15:58:48;4.40;1.00
10566;DHT22;5331;48.148;16.326;2023-02-15T16:01:26;4.40;1.00
10566;DHT22;5331;48.148;16.326;2023-02-15T16:03:56;4.40;1.00
10566;DHT22;5331;48.148;16.326;2023-02-15T16:06:33;4.30;1.00
10566;DHT22;5331;48.148;16.326;2023-02-15T16:09:15;4.30;1.00
10566;DHT22;5331;48.148;16.326;2023-02-15T16:11:43;4.20;1.00
10566;DHT22;5331;48.148;16.326;2023-02-15T16:14:15;4.20;1.00
10566;DHT22;5331;48.148;16.326;2023-02-15T16:16:48;4.10;1.00
10566;DHT22;5331;48.148;16.326;2023-02-15T16:19:23;4.10;1.00
10566;DHT22;5331;48.148;16.326;2023-02-15T16:21:51;4.10;1.00
10566;DHT22;5331;48.148;16.326;2023-02-15T16:24:36;4.10;1.00
10566;DHT22;5331;48.148;16.326;2023-02-15T16:27:10;4.00;1.00
10566;DHT22;5331;48.148;16.326;2023-02-15T16:29:41;4.00;1.00
10566;DHT22;5331;48.148;16.326;2023-02-15T16:32:18;4.00;1.00
10566;DHT22;5331;48.148;16.326;2023-02-15T16:35:02;3.90;1.00
10566;DHT22;5331;48.148;16.326;2023-02-15T16:37:33;3.80;1.00
10566;DHT22;5331;48.148;16.326;2023-02-15T16:40:11;3.80;1.00
10566;DHT22;5331;48.148;16.326;2023-02-15T16:42:53;3.70;1.00
10566;DHT22;5331;48.148;16.326;2023-02-15T16:45:25;3.70;1.00
10566;DHT22;5331;48.148;16.326;2023-02-15T16:47:56;3.60;1.00
10566;DHT22;5331;48.148;16.326;2023-02-15T16:50:30;3.50;1.00
10566;DHT22;5331;48.148;16.326;2023-02-15T16:52:59;3.50;1.00
10566;DHT22;5331;48.148;16.326;2023-02-15T16:55:33;3.40;1.00
10566;DHT22;5331;48.148;16.326;2023-02-15T16:58:13;3.30;1.00
10566;DHT22;5331;48.148;16.326;2023-02-15T17:00:43;3.30;1.00
10566;DHT22;5331;48.148;16.326;2023-02-15T17:03:21;3.30;1.00
10566;DHT22;5331;48.148;16.326;2023-02-15T17:05:55;3.20;1.00
10566;DHT22;5331;48.148;16.326;2023-02-15T17:08:41;3.20;1.00
10566;DHT22;5331;48.148;16.326;2023-02-15T17:11:16;3.10;1.00
10566;DHT22;5331;48.148;16.326;2023-02-15T17:16:58;3.10;1.00